Anglian Lady — VOLP — position and weather

sailwx.info

Track history (hours):
 
Tides and Currents Weather Stations Pressure Air Temp Water Temp Dewpoint Dewpoint Depression Visibility Wind Speed Wind Dir Waves Ship Positions

Anglian Lady

Last reported at 2017-Apr-23 22:31 UTC. Time now 2017-Apr-25 10:25 UTC.
Position N 45°17' W 085°43'.

Length 32 m.

Type: Tug. MMSI: 316002238.

Date/timePositionNaut miles runAvg speedWind from/ knotsBaromVisibWave heightAir tempDewpointWater temp
2017-Apr-23 22:31N 45°17' W 085°43'4 7.7
2017-Apr-23 22:00N 45°20' W 085°40'4 7.8
2017-Apr-23 21:31N 45°23' W 085°36'4 7.8
2017-Apr-23 21:01N 45°26' W 085°33'4 7.9
2017-Apr-23 20:30N 45°29' W 085°29'4 7.9
2017-Apr-23 19:58N 45°32' W 085°26'4 7.9
2017-Apr-23 19:31N 45°35' W 085°23'4 7.8
2017-Apr-23 19:01N 45°38' W 085°19'4 7.8
2017-Apr-23 18:31N 45°41' W 085°16'4 7.7
2017-Apr-23 18:00N 45°44' W 085°12'3 6.9
2017-Apr-23 17:30N 45°47' W 085°09'3 6.3
2017-Apr-23 17:00N 45°50' W 085°07'4 7.4
2017-Apr-23 16:30N 45°50' W 085°02'4 7.6
2017-Apr-23 16:00N 45°50' W 084°57'4 7.6
2017-Apr-23 15:29N 45°49' W 084°51'4 7.7
2017-Apr-23 15:01N 45°49' W 084°46'  
2017-Apr-19 09:44N 45°50' W 084°24'2 8.4
2017-Apr-19 09:28N 45°51' W 084°28'4 8.4
2017-Apr-19 08:59N 45°51' W 084°33'4 8.4
2017-Apr-19 08:30N 45°50' W 084°39'4 8.6
2017-Apr-19 07:59N 45°49' W 084°45'4 8.5
2017-Apr-19 07:30N 45°49' W 084°51'4 8.4
2017-Apr-19 07:00N 45°49' W 084°57'4 8.4
2017-Apr-19 06:30N 45°49' W 085°03'4 7.1
2017-Apr-19 05:58N 45°48' W 085°08'4 8.6
2017-Apr-19 05:30N 45°44' W 085°10'4 8.4
2017-Apr-19 05:00N 45°41' W 085°14'4 8.4
2017-Apr-19 04:30N 45°38' W 085°18'4 8.5
2017-Apr-19 04:00N 45°35' W 085°21'4 8.4
2017-Apr-19 03:30N 45°31' W 085°25'4 8.3
2017-Apr-19 03:00N 45°28' W 085°28'4 8.3
2017-Apr-19 02:30N 45°24' W 085°32'4 8.4
2017-Apr-19 02:00N 45°21' W 085°35'4 8.4
2017-Apr-19 01:30N 45°18' W 085°39'  
2017-Apr-15 05:59N 45°50' W 084°56'  
Track history (hours):
 
Tides and Currents Weather Stations Pressure Air Temp Water Temp Dewpoint Dewpoint Depression Visibility Wind Speed Wind Dir Waves Ship Positions

Anglian Lady

Last reported at 2017-Apr-23 22:31 UTC. Time now 2017-Apr-25 10:25 UTC.
Position N 45°17' W 085°43'.

Length 32 m.

Type: Tug. MMSI: 316002238.

Date/timePositionNaut miles runAvg speedWind from/ knotsBaromVisibWave heightAir tempDewpointWater temp
2017-Apr-23 22:31N 45°17' W 085°43'4 7.7
2017-Apr-23 22:00N 45°20' W 085°40'4 7.8
2017-Apr-23 21:31N 45°23' W 085°36'4 7.8
2017-Apr-23 21:01N 45°26' W 085°33'4 7.9
2017-Apr-23 20:30N 45°29' W 085°29'4 7.9
2017-Apr-23 19:58N 45°32' W 085°26'4 7.9
2017-Apr-23 19:31N 45°35' W 085°23'4 7.8
2017-Apr-23 19:01N 45°38' W 085°19'4 7.8
2017-Apr-23 18:31N 45°41' W 085°16'4 7.7
2017-Apr-23 18:00N 45°44' W 085°12'3 6.9
2017-Apr-23 17:30N 45°47' W 085°09'3 6.3
2017-Apr-23 17:00N 45°50' W 085°07'4 7.4
2017-Apr-23 16:30N 45°50' W 085°02'4 7.6
2017-Apr-23 16:00N 45°50' W 084°57'4 7.6
2017-Apr-23 15:29N 45°49' W 084°51'4 7.7
2017-Apr-23 15:01N 45°49' W 084°46'  
2017-Apr-19 09:44N 45°50' W 084°24'2 8.4
2017-Apr-19 09:28N 45°51' W 084°28'4 8.4
2017-Apr-19 08:59N 45°51' W 084°33'4 8.4
2017-Apr-19 08:30N 45°50' W 084°39'4 8.6
2017-Apr-19 07:59N 45°49' W 084°45'4 8.5
2017-Apr-19 07:30N 45°49' W 084°51'4 8.4
2017-Apr-19 07:00N 45°49' W 084°57'4 8.4
2017-Apr-19 06:30N 45°49' W 085°03'4 7.1
2017-Apr-19 05:58N 45°48' W 085°08'4 8.6
2017-Apr-19 05:30N 45°44' W 085°10'4 8.4
2017-Apr-19 05:00N 45°41' W 085°14'4 8.4
2017-Apr-19 04:30N 45°38' W 085°18'4 8.5
2017-Apr-19 04:00N 45°35' W 085°21'4 8.4
2017-Apr-19 03:30N 45°31' W 085°25'4 8.3
2017-Apr-19 03:00N 45°28' W 085°28'4 8.3
2017-Apr-19 02:30N 45°24' W 085°32'4 8.4
2017-Apr-19 02:00N 45°21' W 085°35'4 8.4
2017-Apr-19 01:30N 45°18' W 085°39'  
2017-Apr-15 05:59N 45°50' W 084°56'  

Dump ship's entire track history